createdAt,value
2023-04-28T00:02:09.154Z,6.63
2023-04-28T00:06:11.378Z,6.67
2023-04-28T00:10:12.783Z,6.13
2023-04-28T00:14:14.325Z,7.00
2023-04-28T00:18:16.012Z,5.30
2023-04-28T00:22:17.457Z,4.83
2023-04-28T00:26:18.888Z,7.73
2023-04-28T00:30:20.399Z,7.83
2023-04-28T00:34:21.697Z,5.60
2023-04-28T00:38:25.406Z,6.23
2023-04-28T00:42:26.880Z,5.43
2023-04-28T00:46:31.990Z,5.23
2023-04-28T00:50:33.548Z,5.80
2023-04-28T00:54:35.004Z,7.87
2023-04-28T00:58:37.370Z,8.10
2023-04-28T01:02:39.192Z,5.30
2023-04-28T01:06:42.337Z,7.53
2023-04-28T01:10:44.585Z,7.20
2023-04-28T01:14:46.316Z,6.00
2023-04-28T01:18:48.272Z,10.53
2023-04-28T01:22:49.598Z,7.80
2023-04-28T01:26:51.091Z,7.40
2023-04-28T01:30:52.461Z,7.43
2023-04-28T01:34:53.848Z,8.13
2023-04-28T01:38:55.642Z,9.03
2023-04-28T01:42:56.943Z,9.40
2023-04-28T01:46:58.347Z,9.27
2023-04-28T01:50:59.711Z,7.97
2023-04-28T01:55:01.020Z,8.87
2023-04-28T01:59:02.416Z,8.30
2023-04-28T02:03:03.932Z,9.00
2023-04-28T02:07:06.430Z,9.50
2023-04-28T02:11:07.790Z,9.03
2023-04-28T02:15:09.558Z,7.47
2023-04-28T02:19:10.994Z,7.37
2023-04-28T02:23:12.429Z,8.73
2023-04-28T02:27:14.078Z,6.50
2023-04-28T02:31:15.845Z,6.57
2023-04-28T02:35:17.308Z,8.03
2023-04-28T02:39:18.853Z,8.23
2023-04-28T02:43:20.178Z,7.93
2023-04-28T02:47:21.567Z,8.10
2023-04-28T02:51:22.835Z,7.93
2023-04-28T02:55:24.462Z,9.87
2023-04-28T02:59:27.012Z,7.27
2023-04-28T03:03:28.548Z,9.70
2023-04-28T03:07:30.098Z,6.83
2023-04-28T03:11:31.393Z,8.93
2023-04-28T03:15:32.918Z,7.77
2023-04-28T03:19:34.306Z,8.13
2023-04-28T03:23:35.674Z,9.73
2023-04-28T03:27:37.049Z,7.70
2023-04-28T03:31:38.373Z,8.27
2023-04-28T03:35:39.748Z,8.00
2023-04-28T03:39:41.133Z,10.90
2023-04-28T03:43:42.440Z,10.53
2023-04-28T03:47:43.735Z,9.27
2023-04-28T03:51:45.393Z,11.60
2023-04-28T03:55:46.866Z,9.57
2023-04-28T03:59:48.236Z,10.10
2023-04-28T04:03:49.666Z,10.83
2023-04-28T04:07:51.079Z,9.27
2023-04-28T04:11:52.460Z,10.43
2023-04-28T04:15:54.008Z,11.47
2023-04-28T04:19:55.565Z,9.63
2023-04-28T04:23:56.838Z,11.03
2023-04-28T04:27:59.077Z,9.00
2023-04-28T04:32:00.427Z,9.33
2023-04-28T04:36:01.924Z,8.90
2023-04-28T04:40:03.626Z,8.87
2023-04-28T04:44:05.799Z,10.77
2023-04-28T04:48:07.354Z,8.57
2023-04-28T04:52:08.740Z,10.77
2023-04-28T04:56:10.057Z,12.70
2023-04-28T05:00:12.089Z,8.13
2023-04-28T05:04:13.632Z,8.70
2023-04-28T05:08:15.141Z,10.60
2023-04-28T05:12:17.012Z,10.87
2023-04-28T05:16:18.527Z,7.93
2023-04-28T05:20:20.106Z,9.20
2023-04-28T05:24:24.661Z,10.37
2023-04-28T05:28:26.050Z,10.67
2023-04-28T05:32:27.349Z,8.57
2023-04-28T05:36:28.785Z,9.43
2023-04-28T05:40:30.109Z,12.77
2023-04-28T05:44:31.701Z,8.90
2023-04-28T05:48:33.045Z,9.87
2023-04-28T05:52:34.663Z,12.30
2023-04-28T05:56:36.159Z,9.50
2023-04-28T06:00:37.486Z,8.40
2023-04-28T06:04:39.489Z,9.23
2023-04-28T06:08:41.058Z,9.03
2023-04-28T06:12:42.514Z,10.17
2023-04-28T06:16:44.008Z,9.10
2023-04-28T06:20:45.358Z,9.07
2023-04-28T06:24:47.708Z,8.93
2023-04-28T06:28:49.265Z,11.13
2023-04-28T06:32:50.796Z,9.80
2023-04-28T06:36:52.213Z,8.40
2023-04-28T06:40:53.610Z,8.47
2023-04-28T06:44:54.955Z,8.37
2023-04-28T06:48:56.307Z,9.23
2023-04-28T06:52:58.720Z,9.20
2023-04-28T06:57:00.119Z,12.43
2023-04-28T07:01:03.599Z,7.93
2023-04-28T07:05:05.342Z,7.97
2023-04-28T07:09:06.728Z,8.47
2023-04-28T07:13:08.144Z,7.70
2023-04-28T07:17:09.541Z,8.23
2023-04-28T07:21:10.960Z,10.53
2023-04-28T07:25:12.342Z,7.77
2023-04-28T07:29:14.883Z,7.70
2023-04-28T07:33:16.248Z,11.33
2023-04-28T07:37:18.496Z,8.40
2023-04-28T07:41:19.873Z,8.67
2023-04-28T07:45:21.443Z,9.60
2023-04-28T07:49:23.044Z,9.20
2023-04-28T07:53:24.406Z,8.97
2023-04-28T07:57:26.434Z,7.17
2023-04-28T08:01:27.834Z,8.13
2023-04-28T08:05:29.461Z,7.67
2023-04-28T08:09:31.098Z,8.13
2023-04-28T08:13:33.117Z,7.17
2023-04-28T08:17:34.553Z,6.70
2023-04-28T08:21:36.267Z,8.13
2023-04-28T08:25:37.607Z,8.13
2023-04-28T08:29:40.202Z,7.97
2023-04-28T08:33:44.347Z,8.70
2023-04-28T08:37:46.325Z,8.87
2023-04-28T08:41:47.715Z,8.23
2023-04-28T08:45:49.256Z,9.30
2023-04-28T08:49:52.476Z,9.70
2023-04-28T08:58:01.022Z,8.30
2023-04-28T09:02:02.536Z,10.07
2023-04-28T09:06:04.056Z,8.63
2023-04-28T09:10:19.494Z,8.53
2023-04-28T09:14:22.579Z,9.60
2023-04-28T09:18:23.915Z,9.43
2023-04-28T09:22:31.014Z,10.67
2023-04-28T09:26:54.821Z,11.37
2023-04-28T09:30:57.329Z,11.37
2023-04-28T09:34:59.473Z,14.23
2023-04-28T09:39:01.650Z,12.70
2023-04-28T09:43:11.944Z,13.30
2023-04-28T09:47:22.627Z,13.03
2023-04-28T09:51:25.414Z,12.80
2023-04-28T09:55:28.262Z,13.57
2023-04-28T09:59:30.124Z,13.00
2023-04-28T10:03:31.822Z,13.70
2023-04-28T10:07:35.653Z,14.27
2023-04-28T10:11:37.163Z,14.93
2023-04-28T10:15:39.170Z,16.93
2023-04-28T10:19:42.747Z,18.63
2023-04-28T10:24:08.345Z,16.67
2023-04-28T10:28:10.409Z,15.67
2023-04-28T10:32:28.951Z,14.00
2023-04-28T10:36:54.854Z,12.53
2023-04-28T10:41:02.488Z,14.17
2023-04-28T10:45:04.386Z,12.47
2023-04-28T10:49:06.154Z,13.30
2023-04-28T10:53:07.505Z,14.77
2023-04-28T10:57:16.494Z,10.67
2023-04-28T11:01:28.172Z,11.20
2023-04-28T11:05:31.856Z,10.00
2023-04-28T11:09:33.131Z,10.60
2023-04-28T11:13:34.692Z,9.90
2023-04-28T11:17:42.501Z,9.05
2023-04-28T11:21:44.044Z,8.82
2023-04-28T11:25:55.728Z,9.23
2023-04-28T11:29:57.331Z,9.00
2023-04-28T11:34:12.059Z,8.68
2023-04-28T11:38:13.395Z,8.32
2023-04-28T11:42:15.002Z,9.45
2023-04-28T11:46:21.686Z,7.78
2023-04-28T11:50:36.565Z,7.72
2023-04-28T11:54:38.410Z,8.18
2023-04-28T11:58:40.228Z,7.55
2023-04-28T12:02:42.059Z,6.93
2023-04-28T12:06:43.623Z,8.57
2023-04-28T12:11:12.833Z,8.20
2023-04-28T12:15:14.375Z,6.90
2023-04-28T12:19:16.359Z,8.02
2023-04-28T12:23:36.004Z,7.00
2023-04-28T12:27:40.196Z,6.93
2023-04-28T12:31:52.981Z,7.03
2023-04-28T12:35:56.544Z,7.47
2023-04-28T12:39:58.302Z,7.38
2023-04-28T12:43:59.704Z,7.35
2023-04-28T12:48:01.564Z,8.32
2023-04-28T12:52:04.266Z,7.40
2023-04-28T12:56:06.117Z,8.75
2023-04-28T13:00:08.699Z,8.00
2023-04-28T13:04:10.341Z,7.97
2023-04-28T13:08:12.755Z,7.93
2023-04-28T13:12:14.690Z,9.52
2023-04-28T13:16:16.132Z,7.57
2023-04-28T13:20:18.611Z,7.32
2023-04-28T13:24:20.189Z,6.97
2023-04-28T13:28:21.609Z,7.88
2023-04-28T13:32:22.970Z,7.45
2023-04-28T13:36:24.439Z,6.18
2023-04-28T13:40:25.892Z,6.30
2023-04-28T13:44:27.161Z,7.60
2023-04-28T13:48:29.090Z,7.65
2023-04-28T13:52:30.822Z,7.50
2023-04-28T13:56:33.416Z,7.95
2023-04-28T14:00:34.911Z,6.43
2023-04-28T14:04:36.790Z,6.05
2023-04-28T14:08:38.390Z,5.95
2023-04-28T14:12:39.773Z,5.30
2023-04-28T14:16:41.176Z,5.10
2023-04-28T14:20:42.487Z,5.40
2023-04-28T14:24:43.924Z,3.03
2023-04-28T14:28:45.659Z,3.03
2023-04-28T14:32:47.546Z,2.90
2023-04-28T14:36:48.934Z,2.13
2023-04-28T14:40:50.452Z,2.10
2023-04-28T14:44:53.974Z,2.17
2023-04-28T14:48:56.856Z,2.63
2023-04-28T14:53:05.127Z,2.15
2023-04-28T14:57:07.214Z,2.42
2023-04-28T15:01:09.180Z,2.20
2023-04-28T15:05:11.644Z,2.08
2023-04-28T15:09:13.503Z,2.92
2023-04-28T15:13:14.853Z,2.42
2023-04-28T15:17:16.750Z,2.40
2023-04-28T15:21:18.109Z,2.13
2023-04-28T15:25:19.533Z,2.50
2023-04-28T15:29:20.994Z,2.28
2023-04-28T15:33:22.682Z,2.78
2023-04-28T15:37:47.609Z,4.03
2023-04-28T15:41:49.151Z,2.17
2023-04-28T15:45:51.518Z,2.75
2023-04-28T15:49:52.846Z,5.30
2023-04-28T15:53:55.651Z,10.05
2023-04-28T15:57:56.983Z,7.10
2023-04-28T16:01:58.326Z,4.78
2023-04-28T16:06:01.011Z,4.78
2023-04-28T16:10:02.355Z,6.60
2023-04-28T16:14:04.047Z,13.70
2023-04-28T16:18:05.507Z,8.73
2023-04-28T16:22:07.061Z,12.52
2023-04-28T16:26:08.578Z,11.95
2023-04-28T16:30:10.351Z,8.63
2023-04-28T16:34:12.290Z,10.30
2023-04-28T16:38:13.634Z,7.53
2023-04-28T16:42:15.030Z,5.37
2023-04-28T16:46:16.448Z,5.00
2023-04-28T16:50:18.010Z,3.73
2023-04-28T16:54:19.372Z,2.40
2023-04-28T16:58:20.644Z,2.73
2023-04-28T17:02:22.591Z,3.30
2023-04-28T17:06:24.424Z,4.47
2023-04-28T17:10:26.014Z,1.60
2023-04-28T17:14:27.433Z,4.15
2023-04-28T17:18:28.778Z,2.60
2023-04-28T17:22:31.314Z,3.13
2023-04-28T17:26:32.702Z,2.07
2023-04-28T17:30:38.229Z,1.83
2023-04-28T17:34:39.910Z,2.93
2023-04-28T17:38:41.319Z,7.30
2023-04-28T17:42:43.075Z,3.73
2023-04-28T17:46:44.536Z,2.53
2023-04-28T17:50:46.423Z,1.30
2023-04-28T17:54:48.330Z,1.67
2023-04-28T17:58:50.327Z,1.63
2023-04-28T18:02:52.741Z,2.20
2023-04-28T18:06:54.167Z,2.23
2023-04-28T18:10:56.927Z,2.50
2023-04-28T18:14:58.255Z,1.63
2023-04-28T18:18:59.651Z,2.20
2023-04-28T18:23:01.971Z,3.27
2023-04-28T18:27:03.956Z,2.47
2023-04-28T18:31:06.141Z,2.27
2023-04-28T18:35:07.930Z,2.73
2023-04-28T18:39:10.012Z,3.33
2023-04-28T18:43:11.386Z,3.00
2023-04-28T18:47:12.809Z,2.47
2023-04-28T18:51:14.309Z,2.33
2023-04-28T18:55:16.068Z,2.50
2023-04-28T18:59:17.446Z,2.43
2023-04-28T19:03:18.858Z,2.47
2023-04-28T19:07:20.409Z,2.53
2023-04-28T19:11:23.322Z,2.70
2023-04-28T19:15:25.642Z,3.83
2023-04-28T19:19:26.988Z,4.10
2023-04-28T19:23:30.241Z,2.97
2023-04-28T19:27:32.940Z,2.63
2023-04-28T19:31:34.805Z,3.63
2023-04-28T19:35:36.084Z,3.03
2023-04-28T19:39:37.370Z,4.20
2023-04-28T19:43:38.774Z,3.20
2023-04-28T19:47:40.227Z,4.50
2023-04-28T19:51:41.571Z,3.23
2023-04-28T19:55:42.856Z,4.57
2023-04-28T19:59:45.467Z,3.10
2023-04-28T20:03:47.146Z,3.83
2023-04-28T20:07:50.228Z,3.90
2023-04-28T20:11:51.538Z,3.63
2023-04-28T20:15:52.876Z,2.70
2023-04-28T20:19:54.207Z,2.97
2023-04-28T20:23:55.492Z,3.47
2023-04-28T20:27:56.994Z,2.90
2023-04-28T20:31:58.908Z,3.30
2023-04-28T20:36:00.247Z,3.13
2023-04-28T20:40:01.550Z,3.03
2023-04-28T20:44:03.161Z,3.67
2023-04-28T20:48:04.856Z,3.53
2023-04-28T20:52:06.474Z,3.20
2023-04-28T20:56:08.416Z,3.47
2023-04-28T21:00:11.336Z,5.83
2023-04-28T21:04:12.844Z,4.63
2023-04-28T21:08:14.335Z,2.90
2023-04-28T21:12:15.646Z,2.97
2023-04-28T21:16:20.990Z,4.20
2023-04-28T21:20:23.340Z,4.13
2023-04-28T21:24:24.740Z,4.03
2023-04-28T21:28:26.056Z,3.80
2023-04-28T21:32:27.634Z,2.80
2023-04-28T21:36:30.047Z,4.47
2023-04-28T21:40:31.377Z,5.23
2023-04-28T21:44:32.761Z,3.10
2023-04-28T21:48:34.210Z,7.27
2023-04-28T21:52:35.615Z,5.87
2023-04-28T21:56:36.973Z,8.07
2023-04-28T22:00:46.991Z,7.10
2023-04-28T22:04:49.236Z,6.87
2023-04-28T22:08:50.674Z,6.37
2023-04-28T22:12:52.082Z,7.40
2023-04-28T22:16:53.569Z,10.73
2023-04-28T22:20:54.888Z,5.90
2023-04-28T22:24:56.497Z,6.53
2023-04-28T22:28:57.846Z,11.20
2023-04-28T22:32:59.276Z,9.53
2023-04-28T22:37:00.624Z,11.50
2023-04-28T22:41:02.581Z,8.03
2023-04-28T22:45:04.490Z,6.77
2023-04-28T22:49:05.901Z,8.00
2023-04-28T22:53:07.353Z,5.97
2023-04-28T22:57:08.943Z,8.07
2023-04-28T23:01:10.359Z,8.77
2023-04-28T23:05:11.776Z,10.50
2023-04-28T23:09:13.215Z,10.23
2023-04-28T23:13:15.185Z,10.57
2023-04-28T23:17:16.528Z,12.57
2023-04-28T23:21:17.864Z,15.43
2023-04-28T23:25:19.163Z,15.43
2023-04-28T23:29:20.591Z,16.67
2023-04-28T23:33:21.923Z,17.83
2023-04-28T23:37:23.252Z,15.77
2023-04-28T23:41:24.549Z,14.40
2023-04-28T23:45:25.885Z,15.40
2023-04-28T23:49:27.305Z,15.33
2023-04-28T23:53:28.620Z,19.80
2023-04-28T23:57:30.002Z,18.97
